sensor_id;sensor_type;location;lat;lon;timestamp;P1;durP1;ratioP1;P2;durP2;ratioP2
73693;SDS011;61997;53.974;11.670;2023-04-15T00:00:30;64.53;;;34.80;;
73693;SDS011;61997;53.974;11.670;2023-04-15T00:03:05;60.80;;;33.40;;
73693;SDS011;61997;53.974;11.670;2023-04-15T00:05:31;61.42;;;33.05;;
73693;SDS011;61997;53.974;11.670;2023-04-15T00:08:03;60.42;;;32.63;;
73693;SDS011;61997;53.974;11.670;2023-04-15T00:10:32;56.42;;;32.13;;
73693;SDS011;61997;53.974;11.670;2023-04-15T00:13:02;61.78;;;34.63;;
73693;SDS011;61997;53.974;11.670;2023-04-15T00:15:32;60.58;;;32.97;;
73693;SDS011;61997;53.974;11.670;2023-04-15T00:18:03;57.55;;;31.67;;
73693;SDS011;61997;53.974;11.670;2023-04-15T00:20:32;58.83;;;32.38;;
73693;SDS011;61997;53.974;11.670;2023-04-15T00:23:02;59.40;;;32.58;;
73693;SDS011;61997;53.974;11.670;2023-04-15T00:25:31;53.60;;;29.17;;
73693;SDS011;61997;53.974;11.670;2023-04-15T00:28:06;58.08;;;31.90;;
73693;SDS011;61997;53.974;11.670;2023-04-15T00:30:41;55.97;;;29.65;;
73693;SDS011;61997;53.974;11.670;2023-04-15T00:33:11;49.95;;;29.67;;
73693;SDS011;61997;53.974;11.670;2023-04-15T00:35:43;50.47;;;29.00;;
73693;SDS011;61997;53.974;11.670;2023-04-15T00:38:18;53.33;;;29.10;;
73693;SDS011;61997;53.974;11.670;2023-04-15T00:40:52;48.90;;;27.13;;
73693;SDS011;61997;53.974;11.670;2023-04-15T00:43:26;52.05;;;28.95;;
73693;SDS011;61997;53.974;11.670;2023-04-15T00:45:55;48.20;;;26.10;;
73693;SDS011;61997;53.974;11.670;2023-04-15T00:48:24;50.00;;;27.23;;
73693;SDS011;61997;53.974;11.670;2023-04-15T00:50:56;50.47;;;28.00;;
73693;SDS011;61997;53.974;11.670;2023-04-15T00:53:30;48.00;;;25.40;;
73693;SDS011;61997;53.974;11.670;2023-04-15T00:56:00;45.97;;;26.65;;
73693;SDS011;61997;53.974;11.670;2023-04-15T00:58:36;47.50;;;25.42;;
73693;SDS011;61997;53.974;11.670;2023-04-15T01:01:09;44.65;;;25.98;;
73693;SDS011;61997;53.974;11.670;2023-04-15T01:03:35;51.03;;;26.15;;
73693;SDS011;61997;53.974;11.670;2023-04-15T01:06:05;46.28;;;26.25;;
73693;SDS011;61997;53.974;11.670;2023-04-15T01:08:33;48.38;;;25.08;;
73693;SDS011;61997;53.974;11.670;2023-04-15T01:11:00;44.60;;;24.38;;
73693;SDS011;61997;53.974;11.670;2023-04-15T01:13:27;40.50;;;23.67;;
73693;SDS011;61997;53.974;11.670;2023-04-15T01:15:57;42.50;;;23.75;;
73693;SDS011;61997;53.974;11.670;2023-04-15T01:18:25;41.42;;;23.85;;
73693;SDS011;61997;53.974;11.670;2023-04-15T01:20:52;39.38;;;22.33;;
73693;SDS011;61997;53.974;11.670;2023-04-15T01:23:17;43.58;;;24.38;;
73693;SDS011;61997;53.974;11.670;2023-04-15T01:25:43;41.95;;;23.17;;
73693;SDS011;61997;53.974;11.670;2023-04-15T01:28:09;43.33;;;23.95;;
73693;SDS011;61997;53.974;11.670;2023-04-15T01:30:35;38.17;;;21.85;;
73693;SDS011;61997;53.974;11.670;2023-04-15T01:33:00;41.45;;;22.85;;
73693;SDS011;61997;53.974;11.670;2023-04-15T01:35:26;37.33;;;21.63;;
73693;SDS011;61997;53.974;11.670;2023-04-15T01:37:52;39.28;;;23.15;;
73693;SDS011;61997;53.974;11.670;2023-04-15T01:40:19;42.15;;;22.65;;
73693;SDS011;61997;53.974;11.670;2023-04-15T01:42:44;39.70;;;21.42;;
73693;SDS011;61997;53.974;11.670;2023-04-15T01:45:10;37.67;;;21.02;;
73693;SDS011;61997;53.974;11.670;2023-04-15T01:47:37;37.45;;;21.08;;
73693;SDS011;61997;53.974;11.670;2023-04-15T01:50:03;36.83;;;20.85;;
73693;SDS011;61997;53.974;11.670;2023-04-15T01:52:28;36.67;;;19.88;;
73693;SDS011;61997;53.974;11.670;2023-04-15T01:54:54;36.92;;;20.27;;
73693;SDS011;61997;53.974;11.670;2023-04-15T01:57:20;37.20;;;20.77;;
73693;SDS011;61997;53.974;11.670;2023-04-15T01:59:46;36.53;;;20.08;;
73693;SDS011;61997;53.974;11.670;2023-04-15T02:02:12;36.42;;;19.55;;
73693;SDS011;61997;53.974;11.670;2023-04-15T02:04:38;35.78;;;19.67;;
73693;SDS011;61997;53.974;11.670;2023-04-15T02:07:04;30.52;;;18.80;;
73693;SDS011;61997;53.974;11.670;2023-04-15T02:09:32;34.33;;;18.73;;
73693;SDS011;61997;53.974;11.670;2023-04-15T02:12:02;31.25;;;19.08;;
73693;SDS011;61997;53.974;11.670;2023-04-15T02:14:32;31.58;;;18.13;;
73693;SDS011;61997;53.974;11.670;2023-04-15T02:17:02;34.05;;;19.00;;
73693;SDS011;61997;53.974;11.670;2023-04-15T02:19:33;35.28;;;20.58;;
73693;SDS011;61997;53.974;11.670;2023-04-15T02:22:07;32.67;;;17.88;;
73693;SDS011;61997;53.974;11.670;2023-04-15T02:24:45;31.77;;;18.25;;
73693;SDS011;61997;53.974;11.670;2023-04-15T02:27:17;30.27;;;16.02;;
73693;SDS011;61997;53.974;11.670;2023-04-15T02:29:45;37.08;;;19.05;;
73693;SDS011;61997;53.974;11.670;2023-04-15T02:32:16;29.20;;;17.10;;
73693;SDS011;61997;53.974;11.670;2023-04-15T02:34:44;28.42;;;16.67;;
73693;SDS011;61997;53.974;11.670;2023-04-15T02:37:12;31.67;;;17.77;;
73693;SDS011;61997;53.974;11.670;2023-04-15T02:39:40;32.70;;;17.95;;
73693;SDS011;61997;53.974;11.670;2023-04-15T02:42:08;31.38;;;17.58;;
73693;SDS011;61997;53.974;11.670;2023-04-15T02:44:33;29.67;;;16.98;;
73693;SDS011;61997;53.974;11.670;2023-04-15T02:47:00;31.52;;;17.95;;
73693;SDS011;61997;53.974;11.670;2023-04-15T02:49:28;28.70;;;16.98;;
73693;SDS011;61997;53.974;11.670;2023-04-15T02:54:27;26.92;;;15.30;;
73693;SDS011;61997;53.974;11.670;2023-04-15T02:59:25;29.70;;;15.80;;
73693;SDS011;61997;53.974;11.670;2023-04-15T03:01:56;27.80;;;16.55;;
73693;SDS011;61997;53.974;11.670;2023-04-15T03:04:25;30.13;;;15.52;;
73693;SDS011;61997;53.974;11.670;2023-04-15T03:06:53;29.40;;;16.30;;
73693;SDS011;61997;53.974;11.670;2023-04-15T03:09:22;30.10;;;14.93;;
73693;SDS011;61997;53.974;11.670;2023-04-15T03:11:51;29.08;;;14.85;;
73693;SDS011;61997;53.974;11.670;2023-04-15T03:14:18;27.08;;;15.38;;
73693;SDS011;61997;53.974;11.670;2023-04-15T03:16:46;28.88;;;14.48;;
73693;SDS011;61997;53.974;11.670;2023-04-15T03:19:12;29.88;;;15.43;;
73693;SDS011;61997;53.974;11.670;2023-04-15T03:21:39;25.98;;;15.13;;
73693;SDS011;61997;53.974;11.670;2023-04-15T03:24:08;25.70;;;15.07;;
73693;SDS011;61997;53.974;11.670;2023-04-15T03:26:39;25.38;;;13.27;;
73693;SDS011;61997;53.974;11.670;2023-04-15T03:29:08;23.55;;;13.38;;
73693;SDS011;61997;53.974;11.670;2023-04-15T03:31:37;24.83;;;14.18;;
73693;SDS011;61997;53.974;11.670;2023-04-15T03:34:06;26.60;;;14.60;;
73693;SDS011;61997;53.974;11.670;2023-04-15T03:36:32;24.77;;;14.52;;
73693;SDS011;61997;53.974;11.670;2023-04-15T03:39:02;22.75;;;13.23;;
73693;SDS011;61997;53.974;11.670;2023-04-15T03:41:31;24.90;;;13.50;;
73693;SDS011;61997;53.974;11.670;2023-04-15T03:44:11;24.10;;;13.80;;
73693;SDS011;61997;53.974;11.670;2023-04-15T03:46:44;23.20;;;13.70;;
73693;SDS011;61997;53.974;11.670;2023-04-15T03:49:18;27.50;;;14.70;;
73693;SDS011;61997;53.974;11.670;2023-04-15T03:51:47;25.65;;;13.18;;
73693;SDS011;61997;53.974;11.670;2023-04-15T03:54:24;20.33;;;12.20;;
73693;SDS011;61997;53.974;11.670;2023-04-15T03:56:58;23.40;;;13.18;;
73693;SDS011;61997;53.974;11.670;2023-04-15T03:59:30;25.23;;;13.55;;
73693;SDS011;61997;53.974;11.670;2023-04-15T04:01:58;22.95;;;13.10;;
73693;SDS011;61997;53.974;11.670;2023-04-15T04:04:31;21.48;;;11.73;;
73693;SDS011;61997;53.974;11.670;2023-04-15T04:07:02;20.05;;;11.88;;
73693;SDS011;61997;53.974;11.670;2023-04-15T04:09:32;22.52;;;12.45;;
73693;SDS011;61997;53.974;11.670;2023-04-15T04:12:05;21.50;;;12.38;;
73693;SDS011;61997;53.974;11.670;2023-04-15T04:14:38;22.77;;;12.85;;
73693;SDS011;61997;53.974;11.670;2023-04-15T04:17:08;23.85;;;12.88;;
73693;SDS011;61997;53.974;11.670;2023-04-15T04:19:40;24.13;;;12.27;;
73693;SDS011;61997;53.974;11.670;2023-04-15T04:22:11;20.88;;;11.70;;
73693;SDS011;61997;53.974;11.670;2023-04-15T04:24:43;21.08;;;12.43;;
73693;SDS011;61997;53.974;11.670;2023-04-15T04:27:15;20.23;;;11.25;;
73693;SDS011;61997;53.974;11.670;2023-04-15T04:29:50;17.73;;;10.65;;
73693;SDS011;61997;53.974;11.670;2023-04-15T04:32:20;18.35;;;10.40;;
73693;SDS011;61997;53.974;11.670;2023-04-15T04:34:58;19.08;;;11.00;;
73693;SDS011;61997;53.974;11.670;2023-04-15T04:37:31;17.65;;;11.18;;
73693;SDS011;61997;53.974;11.670;2023-04-15T04:40:02;22.65;;;12.05;;
73693;SDS011;61997;53.974;11.670;2023-04-15T04:42:32;20.17;;;12.15;;
73693;SDS011;61997;53.974;11.670;2023-04-15T04:45:08;20.05;;;11.45;;
73693;SDS011;61997;53.974;11.670;2023-04-15T04:47:37;18.80;;;11.32;;
73693;SDS011;61997;53.974;11.670;2023-04-15T04:50:12;19.50;;;10.55;;
73693;SDS011;61997;53.974;11.670;2023-04-15T04:52:43;18.80;;;10.10;;
73693;SDS011;61997;53.974;11.670;2023-04-15T04:55:15;19.10;;;10.13;;
73693;SDS011;61997;53.974;11.670;2023-04-15T04:57:46;20.27;;;10.65;;
73693;SDS011;61997;53.974;11.670;2023-04-15T05:00:18;19.27;;;10.70;;
73693;SDS011;61997;53.974;11.670;2023-04-15T05:02:49;18.08;;;9.93;;
73693;SDS011;61997;53.974;11.670;2023-04-15T05:05:17;17.58;;;9.82;;
73693;SDS011;61997;53.974;11.670;2023-04-15T05:07:43;19.45;;;11.40;;
73693;SDS011;61997;53.974;11.670;2023-04-15T05:10:09;18.95;;;10.63;;
73693;SDS011;61997;53.974;11.670;2023-04-15T05:12:40;16.02;;;9.75;;
73693;SDS011;61997;53.974;11.670;2023-04-15T05:15:13;15.27;;;9.57;;
73693;SDS011;61997;53.974;11.670;2023-04-15T05:17:43;17.50;;;10.00;;
73693;SDS011;61997;53.974;11.670;2023-04-15T05:20:14;19.30;;;10.05;;
73693;SDS011;61997;53.974;11.670;2023-04-15T05:22:40;16.70;;;8.82;;
73693;SDS011;61997;53.974;11.670;2023-04-15T05:25:08;19.02;;;9.95;;
73693;SDS011;61997;53.974;11.670;2023-04-15T05:27:39;17.05;;;9.45;;
73693;SDS011;61997;53.974;11.670;2023-04-15T05:30:10;15.57;;;9.70;;
73693;SDS011;61997;53.974;11.670;2023-04-15T05:32:39;14.00;;;9.15;;
73693;SDS011;61997;53.974;11.670;2023-04-15T05:35:09;15.68;;;9.48;;
73693;SDS011;61997;53.974;11.670;2023-04-15T05:37:35;15.30;;;9.52;;
73693;SDS011;61997;53.974;11.670;2023-04-15T05:40:05;16.85;;;9.90;;
73693;SDS011;61997;53.974;11.670;2023-04-15T05:42:34;17.73;;;9.85;;
73693;SDS011;61997;53.974;11.670;2023-04-15T05:45:10;15.95;;;8.95;;
73693;SDS011;61997;53.974;11.670;2023-04-15T05:47:44;14.70;;;9.32;;
73693;SDS011;61997;53.974;11.670;2023-04-15T05:50:16;16.63;;;9.93;;
73693;SDS011;61997;53.974;11.670;2023-04-15T05:52:42;15.73;;;9.05;;
73693;SDS011;61997;53.974;11.670;2023-04-15T05:55:11;15.27;;;9.07;;
73693;SDS011;61997;53.974;11.670;2023-04-15T05:57:38;14.27;;;8.35;;
73693;SDS011;61997;53.974;11.670;2023-04-15T06:00:13;15.25;;;8.30;;
73693;SDS011;61997;53.974;11.670;2023-04-15T06:02:39;13.40;;;8.63;;
73693;SDS011;61997;53.974;11.670;2023-04-15T06:05:09;16.25;;;8.63;;
73693;SDS011;61997;53.974;11.670;2023-04-15T06:07:36;13.65;;;9.38;;
73693;SDS011;61997;53.974;11.670;2023-04-15T06:10:03;16.02;;;8.50;;
73693;SDS011;61997;53.974;11.670;2023-04-15T06:12:32;13.85;;;8.38;;
73693;SDS011;61997;53.974;11.670;2023-04-15T06:15:01;12.68;;;8.30;;
73693;SDS011;61997;53.974;11.670;2023-04-15T06:17:30;14.43;;;8.73;;
73693;SDS011;61997;53.974;11.670;2023-04-15T06:19:57;17.42;;;8.30;;
73693;SDS011;61997;53.974;11.670;2023-04-15T06:22:24;15.00;;;8.65;;
73693;SDS011;61997;53.974;11.670;2023-04-15T06:24:50;14.32;;;8.20;;
73693;SDS011;61997;53.974;11.670;2023-04-15T06:27:18;13.60;;;8.68;;
73693;SDS011;61997;53.974;11.670;2023-04-15T06:29:48;11.93;;;7.82;;
73693;SDS011;61997;53.974;11.670;2023-04-15T06:32:17;13.82;;;8.38;;
73693;SDS011;61997;53.974;11.670;2023-04-15T06:34:48;13.52;;;9.00;;
73693;SDS011;61997;53.974;11.670;2023-04-15T06:37:20;12.18;;;7.78;;
73693;SDS011;61997;53.974;11.670;2023-04-15T06:39:49;16.25;;;8.70;;
73693;SDS011;61997;53.974;11.670;2023-04-15T06:42:15;13.88;;;8.48;;
73693;SDS011;61997;53.974;11.670;2023-04-15T06:44:41;13.63;;;7.95;;
73693;SDS011;61997;53.974;11.670;2023-04-15T06:47:06;13.13;;;8.27;;
73693;SDS011;61997;53.974;11.670;2023-04-15T06:49:33;13.23;;;7.93;;
73693;SDS011;61997;53.974;11.670;2023-04-15T06:52:00;12.43;;;7.40;;
73693;SDS011;61997;53.974;11.670;2023-04-15T06:54:31;12.32;;;7.28;;
73693;SDS011;61997;53.974;11.670;2023-04-15T06:57:00;14.35;;;7.78;;
73693;SDS011;61997;53.974;11.670;2023-04-15T06:59:27;10.63;;;7.03;;
73693;SDS011;61997;53.974;11.670;2023-04-15T07:01:54;14.20;;;8.55;;
73693;SDS011;61997;53.974;11.670;2023-04-15T07:04:20;11.65;;;7.28;;
73693;SDS011;61997;53.974;11.670;2023-04-15T07:06:49;12.70;;;8.00;;
73693;SDS011;61997;53.974;11.670;2023-04-15T07:09:20;11.73;;;7.40;;
73693;SDS011;61997;53.974;11.670;2023-04-15T07:11:47;11.30;;;7.35;;
73693;SDS011;61997;53.974;11.670;2023-04-15T07:14:16;12.40;;;7.30;;
73693;SDS011;61997;53.974;11.670;2023-04-15T07:16:44;10.23;;;7.00;;
73693;SDS011;61997;53.974;11.670;2023-04-15T07:19:10;11.18;;;6.75;;
73693;SDS011;61997;53.974;11.670;2023-04-15T07:21:36;13.13;;;6.72;;
73693;SDS011;61997;53.974;11.670;2023-04-15T07:24:02;13.00;;;7.65;;
73693;SDS011;61997;53.974;11.670;2023-04-15T07:26:29;11.90;;;7.47;;
73693;SDS011;61997;53.974;11.670;2023-04-15T07:28:59;11.80;;;7.13;;
73693;SDS011;61997;53.974;11.670;2023-04-15T07:31:25;11.65;;;6.72;;
73693;SDS011;61997;53.974;11.670;2023-04-15T07:33:51;11.02;;;7.35;;
73693;SDS011;61997;53.974;11.670;2023-04-15T07:36:17;9.52;;;6.47;;
73693;SDS011;61997;53.974;11.670;2023-04-15T07:38:43;10.02;;;7.00;;
73693;SDS011;61997;53.974;11.670;2023-04-15T07:41:10;10.05;;;6.70;;
73693;SDS011;61997;53.974;11.670;2023-04-15T07:43:43;10.00;;;6.40;;
73693;SDS011;61997;53.974;11.670;2023-04-15T07:46:12;11.18;;;6.35;;
73693;SDS011;61997;53.974;11.670;2023-04-15T07:48:39;9.07;;;5.72;;
73693;SDS011;61997;53.974;11.670;2023-04-15T07:51:05;10.90;;;6.55;;
73693;SDS011;61997;53.974;11.670;2023-04-15T07:53:32;10.73;;;6.82;;
73693;SDS011;61997;53.974;11.670;2023-04-15T07:56:02;8.85;;;5.53;;
73693;SDS011;61997;53.974;11.670;2023-04-15T07:58:28;10.45;;;6.38;;
73693;SDS011;61997;53.974;11.670;2023-04-15T08:00:54;7.50;;;5.53;;
73693;SDS011;61997;53.974;11.670;2023-04-15T08:03:20;8.68;;;5.95;;
73693;SDS011;61997;53.974;11.670;2023-04-15T08:05:48;8.10;;;5.68;;
73693;SDS011;61997;53.974;11.670;2023-04-15T08:08:14;8.82;;;6.13;;
73693;SDS011;61997;53.974;11.670;2023-04-15T08:10:42;9.68;;;6.00;;
73693;SDS011;61997;53.974;11.670;2023-04-15T08:13:08;9.85;;;6.18;;
73693;SDS011;61997;53.974;11.670;2023-04-15T08:15:38;10.15;;;6.30;;
73693;SDS011;61997;53.974;11.670;2023-04-15T08:18:03;9.52;;;5.82;;
73693;SDS011;61997;53.974;11.670;2023-04-15T08:20:29;8.52;;;6.05;;
73693;SDS011;61997;53.974;11.670;2023-04-15T08:22:55;7.78;;;5.65;;
73693;SDS011;61997;53.974;11.670;2023-04-15T08:25:21;8.88;;;5.13;;
73693;SDS011;61997;53.974;11.670;2023-04-15T08:27:47;8.18;;;6.18;;
73693;SDS011;61997;53.974;11.670;2023-04-15T08:30:14;7.43;;;5.95;;
73693;SDS011;61997;53.974;11.670;2023-04-15T08:32:49;8.73;;;5.85;;
73693;SDS011;61997;53.974;11.670;2023-04-15T08:35:18;8.43;;;5.03;;
73693;SDS011;61997;53.974;11.670;2023-04-15T08:37:47;10.73;;;6.43;;
73693;SDS011;61997;53.974;11.670;2023-04-15T08:40:17;9.13;;;5.90;;
73693;SDS011;61997;53.974;11.670;2023-04-15T08:42:47;10.60;;;6.50;;
73693;SDS011;61997;53.974;11.670;2023-04-15T08:45:14;7.70;;;5.53;;
73693;SDS011;61997;53.974;11.670;2023-04-15T08:47:41;8.85;;;6.07;;
73693;SDS011;61997;53.974;11.670;2023-04-15T08:50:11;9.13;;;5.85;;
73693;SDS011;61997;53.974;11.670;2023-04-15T08:52:37;9.32;;;5.85;;
73693;SDS011;61997;53.974;11.670;2023-04-15T08:55:07;8.90;;;5.50;;
73693;SDS011;61997;53.974;11.670;2023-04-15T08:57:41;7.55;;;5.13;;
73693;SDS011;61997;53.974;11.670;2023-04-15T09:00:08;7.70;;;5.13;;
73693;SDS011;61997;53.974;11.670;2023-04-15T09:02:34;9.35;;;5.93;;
73693;SDS011;61997;53.974;11.670;2023-04-15T09:05:01;8.48;;;5.35;;
73693;SDS011;61997;53.974;11.670;2023-04-15T09:07:32;8.80;;;5.68;;
73693;SDS011;61997;53.974;11.670;2023-04-15T09:10:02;6.93;;;5.13;;
73693;SDS011;61997;53.974;11.670;2023-04-15T09:15:00;7.65;;;5.50;;
73693;SDS011;61997;53.974;11.670;2023-04-15T09:17:26;7.50;;;5.45;;
73693;SDS011;61997;53.974;11.670;2023-04-15T09:22:40;8.13;;;5.15;;
73693;SDS011;61997;53.974;11.670;2023-04-15T09:27:49;9.57;;;5.47;;
73693;SDS011;61997;53.974;11.670;2023-04-15T09:30:23;9.02;;;5.25;;
73693;SDS011;61997;53.974;11.670;2023-04-15T09:32:56;8.00;;;5.28;;
73693;SDS011;61997;53.974;11.670;2023-04-15T09:35:23;6.90;;;4.85;;
73693;SDS011;61997;53.974;11.670;2023-04-15T09:37:49;7.78;;;6.05;;
73693;SDS011;61997;53.974;11.670;2023-04-15T09:40:31;8.20;;;5.78;;
73693;SDS011;61997;53.974;11.670;2023-04-15T09:43:03;7.35;;;4.90;;
73693;SDS011;61997;53.974;11.670;2023-04-15T09:45:32;6.90;;;5.30;;
73693;SDS011;61997;53.974;11.670;2023-04-15T09:48:14;6.75;;;4.68;;
73693;SDS011;61997;53.974;11.670;2023-04-15T09:50:45;8.88;;;4.88;;
73693;SDS011;61997;53.974;11.670;2023-04-15T09:53:20;7.15;;;5.00;;
73693;SDS011;61997;53.974;11.670;2023-04-15T10:00:50;7.28;;;5.10;;
73693;SDS011;61997;53.974;11.670;2023-04-15T10:03:20;7.45;;;5.07;;
73693;SDS011;61997;53.974;11.670;2023-04-15T10:05:51;7.18;;;5.05;;
73693;SDS011;61997;53.974;11.670;2023-04-15T10:08:20;8.18;;;4.90;;
73693;SDS011;61997;53.974;11.670;2023-04-15T10:10:52;9.15;;;5.93;;
73693;SDS011;61997;53.974;11.670;2023-04-15T10:13:21;6.45;;;4.82;;
73693;SDS011;61997;53.974;11.670;2023-04-15T10:15:57;7.80;;;4.80;;
73693;SDS011;61997;53.974;11.670;2023-04-15T10:18:25;8.18;;;5.30;;
73693;SDS011;61997;53.974;11.670;2023-04-15T10:20:52;6.85;;;5.10;;
73693;SDS011;61997;53.974;11.670;2023-04-15T10:23:19;8.57;;;5.63;;
73693;SDS011;61997;53.974;11.670;2023-04-15T10:25:48;6.68;;;4.72;;
73693;SDS011;61997;53.974;11.670;2023-04-15T10:28:19;8.07;;;5.30;;
73693;SDS011;61997;53.974;11.670;2023-04-15T10:30:46;7.72;;;5.43;;
73693;SDS011;61997;53.974;11.670;2023-04-15T10:33:15;8.40;;;6.65;;
73693;SDS011;61997;53.974;11.670;2023-04-15T10:35:44;8.57;;;5.50;;
73693;SDS011;61997;53.974;11.670;2023-04-15T10:43:52;7.68;;;5.20;;
73693;SDS011;61997;53.974;11.670;2023-04-15T10:49:15;7.35;;;5.85;;
73693;SDS011;61997;53.974;11.670;2023-04-15T10:51:56;8.30;;;5.47;;
73693;SDS011;61997;53.974;11.670;2023-04-15T10:59:30;9.05;;;6.20;;
73693;SDS011;61997;53.974;11.670;2023-04-15T11:02:00;9.15;;;5.70;;
73693;SDS011;61997;53.974;11.670;2023-04-15T11:07:34;8.30;;;6.30;;
73693;SDS011;61997;53.974;11.670;2023-04-15T11:12:51;8.90;;;6.03;;
73693;SDS011;61997;53.974;11.670;2023-04-15T11:20:40;7.82;;;5.78;;
73693;SDS011;61997;53.974;11.670;2023-04-15T11:23:17;10.77;;;6.13;;
73693;SDS011;61997;53.974;11.670;2023-04-15T11:25:48;8.63;;;5.80;;
73693;SDS011;61997;53.974;11.670;2023-04-15T11:28:17;7.93;;;5.63;;
73693;SDS011;61997;53.974;11.670;2023-04-15T11:30:55;8.73;;;5.28;;
73693;SDS011;61997;53.974;11.670;2023-04-15T11:33:27;7.15;;;5.65;;
73693;SDS011;61997;53.974;11.670;2023-04-15T11:35:58;9.32;;;6.32;;
73693;SDS011;61997;53.974;11.670;2023-04-15T11:38:31;9.57;;;6.10;;
73693;SDS011;61997;53.974;11.670;2023-04-15T11:41:02;7.82;;;5.78;;
73693;SDS011;61997;53.974;11.670;2023-04-15T11:43:30;8.43;;;5.95;;
73693;SDS011;61997;53.974;11.670;2023-04-15T11:46:00;10.48;;;6.70;;
73693;SDS011;61997;53.974;11.670;2023-04-15T11:48:31;9.75;;;6.75;;
73693;SDS011;61997;53.974;11.670;2023-04-15T11:51:04;8.73;;;6.53;;
73693;SDS011;61997;53.974;11.670;2023-04-15T11:56:17;9.05;;;6.93;;
73693;SDS011;61997;53.974;11.670;2023-04-15T11:58:45;9.63;;;6.03;;
73693;SDS011;61997;53.974;11.670;2023-04-15T12:01:11;9.95;;;6.93;;
73693;SDS011;61997;53.974;11.670;2023-04-15T12:03:41;9.73;;;6.95;;
73693;SDS011;61997;53.974;11.670;2023-04-15T12:09:00;10.20;;;6.65;;
73693;SDS011;61997;53.974;11.670;2023-04-15T12:11:47;12.02;;;7.75;;
73693;SDS011;61997;53.974;11.670;2023-04-15T12:14:21;7.82;;;6.70;;
73693;SDS011;61997;53.974;11.670;2023-04-15T12:16:50;11.05;;;6.45;;
73693;SDS011;61997;53.974;11.670;2023-04-15T12:19:28;10.18;;;6.80;;
73693;SDS011;61997;53.974;11.670;2023-04-15T12:21:58;9.65;;;7.00;;
73693;SDS011;61997;53.974;11.670;2023-04-15T12:24:25;9.45;;;6.88;;
73693;SDS011;61997;53.974;11.670;2023-04-15T12:26:53;10.07;;;6.85;;
73693;SDS011;61997;53.974;11.670;2023-04-15T12:29:25;9.93;;;6.28;;
73693;SDS011;61997;53.974;11.670;2023-04-15T12:31:54;10.77;;;7.15;;
73693;SDS011;61997;53.974;11.670;2023-04-15T12:34:31;10.60;;;6.80;;
73693;SDS011;61997;53.974;11.670;2023-04-15T12:36:59;9.23;;;6.45;;
73693;SDS011;61997;53.974;11.670;2023-04-15T12:39:27;9.60;;;7.00;;
73693;SDS011;61997;53.974;11.670;2023-04-15T12:42:00;10.90;;;7.60;;
73693;SDS011;61997;53.974;11.670;2023-04-15T12:44:27;9.35;;;6.95;;
73693;SDS011;61997;53.974;11.670;2023-04-15T12:46:54;10.20;;;6.70;;
73693;SDS011;61997;53.974;11.670;2023-04-15T12:49:20;9.80;;;6.75;;
73693;SDS011;61997;53.974;11.670;2023-04-15T12:51:47;10.75;;;6.95;;
73693;SDS011;61997;53.974;11.670;2023-04-15T12:54:14;9.98;;;6.55;;
73693;SDS011;61997;53.974;11.670;2023-04-15T12:56:42;8.70;;;5.70;;
73693;SDS011;61997;53.974;11.670;2023-04-15T12:59:08;10.15;;;6.78;;
73693;SDS011;61997;53.974;11.670;2023-04-15T13:01:34;9.88;;;6.55;;
73693;SDS011;61997;53.974;11.670;2023-04-15T13:04:00;7.68;;;5.70;;
73693;SDS011;61997;53.974;11.670;2023-04-15T13:06:26;11.48;;;7.18;;
73693;SDS011;61997;53.974;11.670;2023-04-15T13:08:53;8.38;;;6.28;;
73693;SDS011;61997;53.974;11.670;2023-04-15T13:11:20;9.30;;;6.63;;
73693;SDS011;61997;53.974;11.670;2023-04-15T13:13:47;9.63;;;6.28;;
73693;SDS011;61997;53.974;11.670;2023-04-15T13:16:13;10.35;;;6.55;;
73693;SDS011;61997;53.974;11.670;2023-04-15T13:18:38;10.43;;;6.63;;
73693;SDS011;61997;53.974;11.670;2023-04-15T13:21:05;9.90;;;7.05;;
73693;SDS011;61997;53.974;11.670;2023-04-15T13:23:33;10.35;;;6.50;;
73693;SDS011;61997;53.974;11.670;2023-04-15T13:25:59;9.30;;;6.65;;
73693;SDS011;61997;53.974;11.670;2023-04-15T13:28:30;10.23;;;6.68;;
73693;SDS011;61997;53.974;11.670;2023-04-15T13:30:56;9.80;;;6.28;;
73693;SDS011;61997;53.974;11.670;2023-04-15T13:33:24;9.75;;;6.75;;
73693;SDS011;61997;53.974;11.670;2023-04-15T13:35:53;10.68;;;7.20;;
73693;SDS011;61997;53.974;11.670;2023-04-15T13:38:23;10.73;;;7.07;;
73693;SDS011;61997;53.974;11.670;2023-04-15T13:40:56;10.52;;;6.70;;
73693;SDS011;61997;53.974;11.670;2023-04-15T13:43:22;7.60;;;6.13;;
73693;SDS011;61997;53.974;11.670;2023-04-15T13:45:48;10.90;;;7.03;;
73693;SDS011;61997;53.974;11.670;2023-04-15T13:48:14;9.13;;;6.30;;
73693;SDS011;61997;53.974;11.670;2023-04-15T13:50:43;9.75;;;6.63;;
73693;SDS011;61997;53.974;11.670;2023-04-15T13:53:13;9.68;;;7.55;;
73693;SDS011;61997;53.974;11.670;2023-04-15T13:55:39;9.32;;;6.88;;
73693;SDS011;61997;53.974;11.670;2023-04-15T13:58:09;10.05;;;6.70;;
73693;SDS011;61997;53.974;11.670;2023-04-15T14:00:36;9.73;;;6.22;;
73693;SDS011;61997;53.974;11.670;2023-04-15T14:03:03;9.65;;;6.55;;
73693;SDS011;61997;53.974;11.670;2023-04-15T14:05:28;11.63;;;7.65;;
73693;SDS011;61997;53.974;11.670;2023-04-15T14:07:55;8.95;;;6.50;;
73693;SDS011;61997;53.974;11.670;2023-04-15T14:10:20;9.93;;;6.47;;
73693;SDS011;61997;53.974;11.670;2023-04-15T14:12:46;10.30;;;6.90;;
73693;SDS011;61997;53.974;11.670;2023-04-15T14:15:13;9.07;;;6.57;;
73693;SDS011;61997;53.974;11.670;2023-04-15T14:17:39;8.35;;;6.10;;
73693;SDS011;61997;53.974;11.670;2023-04-15T14:20:08;9.70;;;7.53;;
73693;SDS011;61997;53.974;11.670;2023-04-15T14:22:35;9.20;;;7.05;;
73693;SDS011;61997;53.974;11.670;2023-04-15T14:25:02;9.60;;;6.40;;
73693;SDS011;61997;53.974;11.670;2023-04-15T14:27:28;9.73;;;6.95;;
73693;SDS011;61997;53.974;11.670;2023-04-15T14:29:59;11.07;;;7.35;;
73693;SDS011;61997;53.974;11.670;2023-04-15T14:32:25;9.68;;;6.20;;
73693;SDS011;61997;53.974;11.670;2023-04-15T14:34:51;11.85;;;8.13;;
73693;SDS011;61997;53.974;11.670;2023-04-15T14:37:17;11.15;;;6.85;;
73693;SDS011;61997;53.974;11.670;2023-04-15T14:39:44;9.30;;;6.60;;
73693;SDS011;61997;53.974;11.670;2023-04-15T14:42:13;8.88;;;6.20;;
73693;SDS011;61997;53.974;11.670;2023-04-15T14:44:40;11.00;;;6.75;;
73693;SDS011;61997;53.974;11.670;2023-04-15T14:47:08;9.63;;;6.55;;
73693;SDS011;61997;53.974;11.670;2023-04-15T14:49:34;11.70;;;7.18;;
73693;SDS011;61997;53.974;11.670;2023-04-15T14:51:59;11.20;;;6.90;;
73693;SDS011;61997;53.974;11.670;2023-04-15T14:54:26;10.30;;;6.68;;
73693;SDS011;61997;53.974;11.670;2023-04-15T14:56:53;9.18;;;7.00;;
73693;SDS011;61997;53.974;11.670;2023-04-15T14:59:21;10.88;;;7.07;;
73693;SDS011;61997;53.974;11.670;2023-04-15T15:01:48;11.13;;;7.20;;
73693;SDS011;61997;53.974;11.670;2023-04-15T15:04:16;10.00;;;7.18;;
73693;SDS011;61997;53.974;11.670;2023-04-15T15:06:44;9.60;;;7.30;;
73693;SDS011;61997;53.974;11.670;2023-04-15T15:09:11;10.82;;;7.40;;
73693;SDS011;61997;53.974;11.670;2023-04-15T15:11:38;11.32;;;6.85;;
73693;SDS011;61997;53.974;11.670;2023-04-15T15:14:09;11.68;;;7.20;;
73693;SDS011;61997;53.974;11.670;2023-04-15T15:16:38;12.88;;;6.82;;
73693;SDS011;61997;53.974;11.670;2023-04-15T15:19:07;9.25;;;6.97;;